createdAt,value
2023-03-04T00:02:03.562Z,9.75
2023-03-04T00:05:06.625Z,8.70
2023-03-04T00:08:08.980Z,8.95
2023-03-04T00:11:11.358Z,10.87
2023-03-04T00:14:13.689Z,8.87
2023-03-04T00:17:16.070Z,10.90
2023-03-04T00:20:18.470Z,9.43
2023-03-04T00:23:20.804Z,9.55
2023-03-04T00:26:23.700Z,9.80
2023-03-04T00:29:26.238Z,9.00
2023-03-04T00:32:28.621Z,8.95
2023-03-04T00:35:30.995Z,7.70
2023-03-04T00:38:33.333Z,8.75
2023-03-04T00:41:35.678Z,9.47
2023-03-04T00:44:38.532Z,8.80
2023-03-04T00:47:40.891Z,8.45
2023-03-04T00:50:44.005Z,8.95
2023-03-04T00:53:47.482Z,9.68
2023-03-04T00:56:49.879Z,8.77
2023-03-04T00:59:52.206Z,8.50
2023-03-04T01:02:54.620Z,11.50
2023-03-04T01:05:57.223Z,8.27
2023-03-04T01:08:59.574Z,9.30
2023-03-04T01:12:02.060Z,9.80
2023-03-04T01:15:04.974Z,8.73
2023-03-04T01:18:08.025Z,9.38
2023-03-04T01:21:10.656Z,9.90
2023-03-04T01:24:13.056Z,7.30
2023-03-04T01:27:16.626Z,8.70
2023-03-04T01:30:19.572Z,9.60
2023-03-04T01:33:21.959Z,8.55
2023-03-04T01:36:24.345Z,8.43
2023-03-04T01:39:26.708Z,9.18
2023-03-04T01:42:32.173Z,8.93
2023-03-04T01:45:35.740Z,9.03
2023-03-04T01:48:39.022Z,9.25
2023-03-04T01:51:43.824Z,8.75
2023-03-04T01:54:46.341Z,8.10
2023-03-04T01:57:49.976Z,8.50
2023-03-04T02:00:52.354Z,9.07
2023-03-04T02:03:54.756Z,9.55
2023-03-04T02:06:58.234Z,9.15
2023-03-04T02:10:00.545Z,7.78
2023-03-04T02:13:03.268Z,8.80
2023-03-04T02:16:05.736Z,8.33
2023-03-04T02:19:31.010Z,8.65
2023-03-04T02:22:35.928Z,8.52
2023-03-04T02:25:44.657Z,8.35
2023-03-04T02:28:50.052Z,8.23
2023-03-04T02:31:54.035Z,8.20
2023-03-04T02:34:56.467Z,8.30
2023-03-04T02:37:58.792Z,8.13
2023-03-04T02:41:02.115Z,8.65
2023-03-04T02:44:15.997Z,8.47
2023-03-04T02:47:18.996Z,8.27
2023-03-04T02:50:22.692Z,8.02
2023-03-04T02:53:28.864Z,7.68
2023-03-04T02:56:31.677Z,8.30
2023-03-04T02:59:35.543Z,8.80
2023-03-04T03:02:38.788Z,8.97
2023-03-04T03:05:41.318Z,8.43
2023-03-04T03:08:44.073Z,7.88
2023-03-04T03:11:46.822Z,9.13
2023-03-04T03:14:49.908Z,8.27
2023-03-04T03:17:54.961Z,8.40
2023-03-04T03:20:57.451Z,8.15
2023-03-04T03:23:59.813Z,8.98
2023-03-04T03:27:02.158Z,8.90
2023-03-04T03:30:05.880Z,9.20
2023-03-04T03:33:11.408Z,8.23
2023-03-04T03:36:14.019Z,10.23
2023-03-04T03:39:16.810Z,8.68
2023-03-04T03:42:19.205Z,8.90
2023-03-04T03:45:21.609Z,8.40
2023-03-04T03:48:23.925Z,10.07
2023-03-04T03:51:26.283Z,8.02
2023-03-04T03:54:28.645Z,8.85
2023-03-04T03:57:30.964Z,7.95
2023-03-04T04:00:33.355Z,8.40
2023-03-04T04:03:35.780Z,8.07
2023-03-04T04:06:38.262Z,8.00
2023-03-04T04:09:40.733Z,8.00
2023-03-04T04:12:43.066Z,9.43
2023-03-04T04:15:45.517Z,7.80
2023-03-04T04:18:47.913Z,8.33
2023-03-04T04:21:50.291Z,7.88
2023-03-04T04:24:52.602Z,9.05
2023-03-04T04:27:54.960Z,8.13
2023-03-04T04:30:57.330Z,7.90
2023-03-04T04:33:59.641Z,7.93
2023-03-04T04:37:01.977Z,7.45
2023-03-04T04:40:04.855Z,8.52
2023-03-04T04:43:07.279Z,8.70
2023-03-04T04:46:09.799Z,8.07
2023-03-04T04:49:12.211Z,8.30
2023-03-04T04:52:14.634Z,7.60
2023-03-04T04:55:17.035Z,7.85
2023-03-04T04:58:19.330Z,8.35
2023-03-04T05:01:21.882Z,7.80
2023-03-04T05:04:24.210Z,8.63
2023-03-04T05:07:26.579Z,7.95
2023-03-04T05:10:28.914Z,8.52
2023-03-04T05:13:31.359Z,8.27
2023-03-04T05:16:33.778Z,8.83
2023-03-04T05:19:36.145Z,7.07
2023-03-04T05:22:38.550Z,7.50
2023-03-04T05:25:40.914Z,7.30
2023-03-04T05:28:43.506Z,7.90
2023-03-04T05:31:45.870Z,7.63
2023-03-04T05:34:48.177Z,7.13
2023-03-04T05:37:50.488Z,6.70
2023-03-04T05:40:58.430Z,6.45
2023-03-04T05:44:01.316Z,6.53
2023-03-04T05:47:03.659Z,6.87
2023-03-04T05:50:06.436Z,6.40
2023-03-04T05:53:08.791Z,6.32
2023-03-04T05:56:13.762Z,6.07
2023-03-04T05:59:20.613Z,6.65
2023-03-04T06:02:23.130Z,8.13
2023-03-04T06:05:25.489Z,7.90
2023-03-04T06:08:27.993Z,8.00
2023-03-04T06:11:30.409Z,7.40
2023-03-04T06:14:32.739Z,7.10
2023-03-04T06:17:35.052Z,7.03
2023-03-04T06:20:37.741Z,6.93
2023-03-04T06:23:40.572Z,6.28
2023-03-04T06:26:42.934Z,7.03
2023-03-04T06:29:45.313Z,6.53
2023-03-04T06:32:48.148Z,7.10
2023-03-04T06:35:54.594Z,7.83
2023-03-04T06:38:57.030Z,7.00
2023-03-04T06:41:59.373Z,6.53
2023-03-04T06:45:02.015Z,6.65
2023-03-04T06:48:04.541Z,6.90
2023-03-04T06:51:11.710Z,6.50
2023-03-04T06:54:15.162Z,6.28
2023-03-04T06:57:17.533Z,6.35
2023-03-04T07:00:20.104Z,6.32
2023-03-04T07:03:22.501Z,6.40
2023-03-04T07:06:27.421Z,6.80
2023-03-04T07:09:29.887Z,6.30
2023-03-04T07:12:32.361Z,6.40
2023-03-04T07:15:36.266Z,6.53
2023-03-04T07:18:38.931Z,6.60
2023-03-04T07:21:41.279Z,6.23
2023-03-04T07:24:43.667Z,6.25
2023-03-04T07:27:46.048Z,6.00
2023-03-04T07:30:48.445Z,5.80
2023-03-04T07:33:51.556Z,6.20
2023-03-04T07:36:53.921Z,5.47
2023-03-04T07:39:56.291Z,5.90
2023-03-04T07:42:58.694Z,5.90
2023-03-04T07:46:02.992Z,5.68
2023-03-04T07:49:05.405Z,5.90
2023-03-04T07:52:07.780Z,5.90
2023-03-04T07:55:11.568Z,5.22
2023-03-04T07:58:14.074Z,5.30
2023-03-04T08:01:19.318Z,6.00
2023-03-04T08:04:21.764Z,5.90
2023-03-04T08:07:24.178Z,5.40
2023-03-04T08:10:26.498Z,5.28
2023-03-04T08:13:28.915Z,5.25
2023-03-04T08:16:31.549Z,5.53
2023-03-04T08:19:33.976Z,5.50
2023-03-04T08:22:36.298Z,5.37
2023-03-04T08:25:40.322Z,4.80
2023-03-04T08:28:43.185Z,5.40
2023-03-04T08:31:48.712Z,5.65
2023-03-04T08:34:51.363Z,5.43
2023-03-04T08:37:53.730Z,5.67
2023-03-04T08:40:56.788Z,5.90
2023-03-04T08:44:00.286Z,5.50
2023-03-04T08:47:02.708Z,5.18
2023-03-04T08:50:06.634Z,5.40
2023-03-04T08:53:09.013Z,5.87
2023-03-04T08:56:11.862Z,5.47
2023-03-04T08:59:14.335Z,5.55
2023-03-04T09:02:16.713Z,5.60
2023-03-04T09:05:19.102Z,5.07
2023-03-04T09:08:21.441Z,5.47
2023-03-04T09:11:23.789Z,5.32
2023-03-04T09:14:26.234Z,5.13
2023-03-04T09:17:28.596Z,5.03
2023-03-04T09:20:31.914Z,5.50
2023-03-04T09:23:34.885Z,5.13
2023-03-04T09:26:37.269Z,5.40
2023-03-04T09:29:39.617Z,5.35
2023-03-04T09:32:42.027Z,5.20
2023-03-04T09:35:44.840Z,6.00
2023-03-04T09:38:47.229Z,5.57
2023-03-04T09:41:53.196Z,5.55
2023-03-04T09:44:56.054Z,5.28
2023-03-04T09:47:58.400Z,5.63
2023-03-04T09:51:20.230Z,5.30
2023-03-04T09:54:51.678Z,5.10
2023-03-04T09:58:03.444Z,5.20
2023-03-04T10:01:18.221Z,5.32
2023-03-04T10:04:42.525Z,5.05
2023-03-04T10:07:48.818Z,5.40
2023-03-04T10:10:52.130Z,5.37
2023-03-04T10:14:00.765Z,5.35
2023-03-04T10:17:13.875Z,5.40
2023-03-04T10:20:23.656Z,5.50
2023-03-04T10:23:27.434Z,4.90
2023-03-04T10:26:33.050Z,5.03
2023-03-04T10:29:35.895Z,5.47
2023-03-04T10:32:38.328Z,5.25
2023-03-04T10:35:45.408Z,5.35
2023-03-04T10:38:47.813Z,5.07
2023-03-04T10:42:16.416Z,5.37
2023-03-04T10:45:25.054Z,5.20
2023-03-04T10:48:29.569Z,5.30
2023-03-04T10:51:32.161Z,4.85
2023-03-04T10:54:53.665Z,5.50
2023-03-04T10:58:01.425Z,4.40
2023-03-04T11:01:05.688Z,5.13
2023-03-04T11:04:18.585Z,5.20
2023-03-04T11:07:23.138Z,5.20
2023-03-04T11:10:40.452Z,4.87
2023-03-04T11:13:52.546Z,5.70
2023-03-04T11:17:03.340Z,5.50
2023-03-04T11:20:32.542Z,5.10
2023-03-04T11:24:00.824Z,4.90
2023-03-04T11:27:13.594Z,5.37
2023-03-04T11:30:27.504Z,4.80
2023-03-04T11:33:45.341Z,5.03
2023-03-04T11:36:58.328Z,5.13
2023-03-04T11:40:16.933Z,4.90
2023-03-04T11:43:30.540Z,5.23
2023-03-04T11:46:56.975Z,5.20
2023-03-04T11:50:16.445Z,5.05
2023-03-04T11:53:41.521Z,5.20
2023-03-04T11:56:46.082Z,4.80
2023-03-04T11:59:54.318Z,5.00
2023-03-04T12:03:34.903Z,5.33
2023-03-04T12:07:14.423Z,4.88
2023-03-04T12:10:22.632Z,4.93
2023-03-04T12:13:36.404Z,4.97
2023-03-04T12:16:58.438Z,4.70
2023-03-04T12:20:38.044Z,4.77
2023-03-04T12:23:53.832Z,5.47
2023-03-04T12:27:29.988Z,5.35
2023-03-04T12:30:41.624Z,4.40
2023-03-04T12:34:09.047Z,4.17
2023-03-04T12:37:20.351Z,5.40
2023-03-04T12:40:35.743Z,4.68
2023-03-04T12:43:54.579Z,4.65
2023-03-04T12:47:20.652Z,4.88
2023-03-04T12:50:37.607Z,4.60
2023-03-04T12:54:05.510Z,5.20
2023-03-04T12:57:15.359Z,4.70
2023-03-04T13:00:48.189Z,5.00
2023-03-04T13:03:58.398Z,4.80
2023-03-04T13:07:19.085Z,4.97
2023-03-04T13:10:23.613Z,4.87
2023-03-04T13:13:44.248Z,4.43
2023-03-04T13:16:46.524Z,5.10
2023-03-04T13:19:57.330Z,4.60
2023-03-04T13:23:08.796Z,4.60
2023-03-04T13:26:21.526Z,4.60
2023-03-04T13:29:24.297Z,4.60
2023-03-04T13:32:37.673Z,4.68
2023-03-04T13:35:46.844Z,4.63
2023-03-04T13:39:01.383Z,4.50
2023-03-04T13:42:04.533Z,4.50
2023-03-04T13:45:34.027Z,4.68
2023-03-04T13:48:36.422Z,4.28
2023-03-04T13:51:46.210Z,4.72
2023-03-04T13:54:48.537Z,4.50
2023-03-04T13:57:51.335Z,4.63
2023-03-04T14:00:55.586Z,4.53
2023-03-04T14:03:59.435Z,4.35
2023-03-04T14:07:18.118Z,4.68
2023-03-04T14:10:24.993Z,4.53
2023-03-04T14:13:28.486Z,4.87
2023-03-04T14:16:32.659Z,4.97
2023-03-04T14:19:46.038Z,4.53
2023-03-04T14:22:49.636Z,4.72
2023-03-04T14:25:52.038Z,4.80
2023-03-04T14:28:57.488Z,5.00
2023-03-04T14:32:00.308Z,4.68
2023-03-04T14:35:06.030Z,4.47
2023-03-04T14:38:32.564Z,3.88
2023-03-04T14:41:38.444Z,4.63
2023-03-04T14:44:49.071Z,4.60
2023-03-04T14:47:54.393Z,4.00
2023-03-04T14:50:57.847Z,4.82
2023-03-04T14:54:00.349Z,4.25
2023-03-04T14:57:26.030Z,6.20
2023-03-04T15:00:31.709Z,4.50
2023-03-04T15:04:05.180Z,5.18
2023-03-04T15:07:16.032Z,4.82
2023-03-04T15:10:22.917Z,4.93
2023-03-04T15:13:58.303Z,4.53
2023-03-04T15:17:00.669Z,4.30
2023-03-04T15:20:11.400Z,4.43
2023-03-04T15:23:14.897Z,4.38
2023-03-04T15:26:17.466Z,4.25
2023-03-04T15:29:20.959Z,4.60
2023-03-04T15:32:23.853Z,4.17
2023-03-04T15:35:30.557Z,5.05
2023-03-04T15:38:33.083Z,4.97
2023-03-04T15:41:35.471Z,4.38
2023-03-04T15:44:37.935Z,4.80
2023-03-04T15:47:40.318Z,5.03
2023-03-04T15:50:49.986Z,4.85
2023-03-04T15:53:54.371Z,6.45
2023-03-04T15:56:58.445Z,8.43
2023-03-04T16:00:00.797Z,5.77
2023-03-04T16:03:03.584Z,4.93
2023-03-04T16:06:12.471Z,4.63
2023-03-04T16:09:17.088Z,4.95
2023-03-04T16:12:19.775Z,4.78
2023-03-04T16:15:25.212Z,4.57
2023-03-04T16:18:27.675Z,4.83
2023-03-04T16:21:30.098Z,4.47
2023-03-04T16:24:34.450Z,5.20
2023-03-04T16:27:37.041Z,5.70
2023-03-04T16:30:39.970Z,4.50
2023-03-04T16:33:42.552Z,4.80
2023-03-04T16:36:45.146Z,4.32
2023-03-04T16:39:49.568Z,4.95
2023-03-04T16:42:52.203Z,4.60
2023-03-04T16:45:54.763Z,4.73
2023-03-04T16:48:57.118Z,4.80
2023-03-04T16:51:59.547Z,4.13
2023-03-04T16:55:02.059Z,4.30
2023-03-04T16:58:05.468Z,4.97
2023-03-04T17:01:17.169Z,4.67
2023-03-04T17:04:19.763Z,5.03
2023-03-04T17:07:22.163Z,4.97
2023-03-04T17:10:24.717Z,4.28
2023-03-04T17:13:27.313Z,4.50
2023-03-04T17:16:29.847Z,5.43
2023-03-04T17:19:32.614Z,4.60
2023-03-04T17:22:35.466Z,4.78
2023-03-04T17:25:39.046Z,4.43
2023-03-04T17:28:41.602Z,5.20
2023-03-04T17:31:44.156Z,5.47
2023-03-04T17:34:47.283Z,5.13
2023-03-04T17:37:49.704Z,5.55
2023-03-04T17:40:52.095Z,4.70
2023-03-04T17:43:54.913Z,5.50
2023-03-04T17:46:59.699Z,4.87
2023-03-04T17:50:03.700Z,5.87
2023-03-04T17:53:06.195Z,5.63
2023-03-04T17:56:09.292Z,4.63
2023-03-04T17:59:14.464Z,4.38
2023-03-04T18:02:17.445Z,4.43
2023-03-04T18:05:20.077Z,5.13
2023-03-04T18:08:24.083Z,5.05
2023-03-04T18:11:27.718Z,4.70
2023-03-04T18:14:30.185Z,5.20
2023-03-04T18:17:32.657Z,4.90
2023-03-04T18:20:35.192Z,4.53
2023-03-04T18:23:37.883Z,4.60
2023-03-04T18:26:40.279Z,4.13
2023-03-04T18:29:42.795Z,3.95
2023-03-04T18:32:51.811Z,3.87
2023-03-04T18:35:59.787Z,4.20
2023-03-04T18:39:05.261Z,4.20
2023-03-04T18:42:07.859Z,3.90
2023-03-04T18:45:12.889Z,3.55
2023-03-04T18:48:15.253Z,3.83
2023-03-04T18:51:17.831Z,4.07
2023-03-04T18:54:20.446Z,3.60
2023-03-04T18:57:22.931Z,3.45
2023-03-04T19:00:26.046Z,3.80
2023-03-04T19:03:28.956Z,3.90
2023-03-04T19:06:34.580Z,3.80
2023-03-04T19:09:37.123Z,3.58
2023-03-04T19:12:39.784Z,3.50
2023-03-04T19:15:42.732Z,3.63
2023-03-04T19:18:45.193Z,3.33
2023-03-04T19:21:47.721Z,3.63
2023-03-04T19:24:50.299Z,3.65
2023-03-04T19:27:55.373Z,3.63
2023-03-04T19:30:59.297Z,2.90
2023-03-04T19:34:01.975Z,3.53
2023-03-04T19:37:04.533Z,2.90
2023-03-04T19:40:08.052Z,3.38
2023-03-04T19:43:10.496Z,3.60
2023-03-04T19:46:13.601Z,3.67
2023-03-04T19:49:16.124Z,3.63
2023-03-04T19:52:19.399Z,3.20
2023-03-04T19:55:21.923Z,3.60
2023-03-04T19:58:24.449Z,3.60
2023-03-04T20:01:29.274Z,4.28
2023-03-04T20:04:31.988Z,3.73
2023-03-04T20:07:34.551Z,3.40
2023-03-04T20:10:37.918Z,3.80
2023-03-04T20:13:40.472Z,3.40
2023-03-04T20:16:43.582Z,3.42
2023-03-04T20:19:47.531Z,3.37
2023-03-04T20:22:50.076Z,3.60
2023-03-04T20:25:53.573Z,3.63
2023-03-04T20:28:56.105Z,3.25
2023-03-04T20:31:58.681Z,3.47
2023-03-04T20:35:01.021Z,3.40
2023-03-04T20:38:03.840Z,3.40
2023-03-04T20:41:06.340Z,3.42
2023-03-04T20:44:08.924Z,3.47
2023-03-04T20:47:11.443Z,3.65
2023-03-04T20:50:14.235Z,3.37
2023-03-04T20:53:16.898Z,3.60
2023-03-04T20:56:19.404Z,3.40
2023-03-04T20:59:21.888Z,3.28
2023-03-04T21:02:25.508Z,3.20
2023-03-04T21:05:28.080Z,3.60
2023-03-04T21:08:31.924Z,3.30
2023-03-04T21:11:40.486Z,3.50
2023-03-04T21:14:44.973Z,3.50
2023-03-04T21:17:47.345Z,3.20
2023-03-04T21:20:51.945Z,3.20
2023-03-04T21:23:55.588Z,3.00
2023-03-04T21:26:58.526Z,3.50
2023-03-04T21:30:00.857Z,3.50
2023-03-04T21:33:05.325Z,3.05
2023-03-04T21:36:09.793Z,3.20
2023-03-04T21:39:18.871Z,3.40
2023-03-04T21:42:21.393Z,3.15
2023-03-04T21:45:23.731Z,3.30
2023-03-04T21:48:26.143Z,2.90
2023-03-04T21:51:28.526Z,3.23
2023-03-04T21:54:30.887Z,3.80
2023-03-04T21:57:33.366Z,3.50
2023-03-04T22:00:35.831Z,3.30
2023-03-04T22:03:41.273Z,3.33
2023-03-04T22:06:43.775Z,3.27
2023-03-04T22:09:46.154Z,3.40
2023-03-04T22:12:48.503Z,3.70
2023-03-04T22:15:50.848Z,2.85
2023-03-04T22:18:53.331Z,3.70
2023-03-04T22:21:55.815Z,3.20
2023-03-04T22:25:00.228Z,3.10
2023-03-04T22:28:02.987Z,3.67
2023-03-04T22:31:16.820Z,3.10
2023-03-04T22:34:19.734Z,3.50
2023-03-04T22:37:22.094Z,2.97
2023-03-04T22:40:24.459Z,3.03
2023-03-04T22:43:26.787Z,3.05
2023-03-04T22:46:31.513Z,3.28
2023-03-04T22:49:33.886Z,3.20
2023-03-04T22:52:36.245Z,3.23
2023-03-04T22:55:38.540Z,3.00
2023-03-04T22:58:41.153Z,2.90
2023-03-04T23:07:14.534Z,3.08
2023-03-04T23:10:22.551Z,2.90
2023-03-04T23:13:25.028Z,3.23
2023-03-04T23:16:28.555Z,2.92
2023-03-04T23:19:30.900Z,2.75
2023-03-04T23:22:33.299Z,3.42
2023-03-04T23:25:36.604Z,2.97
2023-03-04T23:28:38.966Z,2.70
2023-03-04T23:31:42.692Z,3.30
2023-03-04T23:34:45.087Z,2.90
2023-03-04T23:37:47.616Z,3.10
2023-03-04T23:40:50.002Z,3.20
2023-03-04T23:43:56.949Z,3.10
2023-03-04T23:46:59.307Z,3.00
2023-03-04T23:50:03.898Z,2.80
2023-03-04T23:53:06.263Z,3.28
2023-03-04T23:56:12.898Z,2.93
2023-03-04T23:59:15.404Z,2.97
